createdAt,value
2022-12-11T00:01:24.545Z,48.03
2022-12-11T00:03:51.287Z,48.28
2022-12-11T00:06:21.697Z,48.05
2022-12-11T00:08:50.969Z,47.92
2022-12-11T00:11:17.388Z,48.45
2022-12-11T00:13:44.282Z,48.43
2022-12-11T00:16:11.287Z,47.98
2022-12-11T00:18:37.915Z,48.02
2022-12-11T00:21:06.702Z,48.48
2022-12-11T00:23:35.478Z,48.47
2022-12-11T00:26:06.573Z,48.34
2022-12-11T00:28:33.045Z,48.20
2022-12-11T00:30:59.716Z,48.15
2022-12-11T00:33:27.133Z,48.49
2022-12-11T00:35:53.437Z,48.57
2022-12-11T00:38:21.892Z,48.07
2022-12-11T00:40:49.114Z,48.86
2022-12-11T00:43:16.243Z,48.39
2022-12-11T00:45:44.785Z,48.64
2022-12-11T00:48:12.457Z,48.60
2022-12-11T00:50:39.226Z,48.57
2022-12-11T00:53:06.356Z,48.59
2022-12-11T00:55:37.461Z,48.45
2022-12-11T00:58:04.110Z,48.51
2022-12-11T01:00:30.779Z,48.44
2022-12-11T01:02:57.218Z,48.22
2022-12-11T01:05:23.601Z,48.75
2022-12-11T01:07:50.009Z,48.65
2022-12-11T01:10:25.910Z,48.56
2022-12-11T01:12:55.879Z,48.77
2022-12-11T01:15:24.976Z,48.63
2022-12-11T01:17:52.076Z,49.12
2022-12-11T01:20:20.114Z,48.94
2022-12-11T01:22:46.749Z,48.83
2022-12-11T01:25:13.348Z,49.00
2022-12-11T01:27:39.881Z,48.81
2022-12-11T01:30:08.191Z,48.64
2022-12-11T01:32:35.998Z,48.34
2022-12-11T01:35:07.900Z,49.05
2022-12-11T01:37:35.193Z,48.94
2022-12-11T01:40:02.304Z,48.69
2022-12-11T01:42:29.635Z,48.89
2022-12-11T01:45:24.671Z,49.58
2022-12-11T01:47:57.775Z,48.93
2022-12-11T01:50:24.596Z,49.05
2022-12-11T01:52:51.933Z,49.01
2022-12-11T01:55:19.765Z,48.74
2022-12-11T01:57:49.695Z,48.99
2022-12-11T02:00:16.488Z,49.30
2022-12-11T02:02:42.924Z,49.10
2022-12-11T02:05:09.985Z,48.81
2022-12-11T02:07:58.753Z,48.85
2022-12-11T02:10:37.051Z,48.89
2022-12-11T02:13:18.327Z,49.17
2022-12-11T02:15:54.281Z,49.28
2022-12-11T02:18:50.034Z,48.97
2022-12-11T02:21:28.063Z,49.19
2022-12-11T02:24:19.544Z,48.93
2022-12-11T02:27:30.343Z,49.53
2022-12-11T02:30:01.900Z,48.99
2022-12-11T02:32:58.287Z,49.14
2022-12-11T02:35:27.183Z,49.15
2022-12-11T02:38:01.465Z,49.03
2022-12-11T02:40:31.669Z,49.03
2022-12-11T02:43:02.110Z,49.43
2022-12-11T02:45:29.444Z,49.08
2022-12-11T02:48:00.893Z,49.41
2022-12-11T02:50:28.946Z,49.68
2022-12-11T02:52:58.167Z,49.26
2022-12-11T02:55:28.259Z,49.27
2022-12-11T02:58:17.930Z,49.74
2022-12-11T03:00:45.416Z,48.93
2022-12-11T03:03:12.655Z,48.99
2022-12-11T03:05:39.915Z,49.35
2022-12-11T03:08:06.665Z,49.09
2022-12-11T03:10:33.388Z,49.31
2022-12-11T03:13:00.867Z,49.15
2022-12-11T03:15:39.325Z,49.33
2022-12-11T03:18:08.624Z,49.36
2022-12-11T03:20:41.134Z,48.77
2022-12-11T03:23:18.908Z,48.83
2022-12-11T03:25:58.049Z,49.17
2022-12-11T03:28:35.246Z,48.87
2022-12-11T03:31:08.903Z,49.20
2022-12-11T03:33:38.958Z,49.44
2022-12-11T03:36:11.434Z,49.62
2022-12-11T03:38:45.157Z,49.38
2022-12-11T03:41:14.980Z,49.08
2022-12-11T03:43:41.723Z,48.99
2022-12-11T03:46:09.604Z,49.32
2022-12-11T03:48:38.853Z,49.75
2022-12-11T03:51:06.645Z,49.33
2022-12-11T03:53:35.434Z,49.42
2022-12-11T03:56:05.563Z,49.31
2022-12-11T03:58:32.308Z,49.52
2022-12-11T04:00:58.892Z,49.51
2022-12-11T04:03:25.498Z,49.92
2022-12-11T04:05:53.816Z,49.44
2022-12-11T04:08:22.157Z,49.64
2022-12-11T04:10:49.021Z,50.13
2022-12-11T04:13:15.314Z,48.88
2022-12-11T04:15:41.936Z,49.16
2022-12-11T04:18:27.109Z,49.68
2022-12-11T04:21:13.859Z,49.33
2022-12-11T04:23:58.722Z,49.73
2022-12-11T04:26:25.650Z,49.64
2022-12-11T04:28:52.196Z,49.34
2022-12-11T04:31:21.141Z,49.28
2022-12-11T04:33:47.904Z,49.61
2022-12-11T04:36:15.039Z,49.86
2022-12-11T04:38:41.407Z,49.48
2022-12-11T04:41:11.968Z,49.41
2022-12-11T04:43:39.002Z,49.10
2022-12-11T04:46:16.907Z,49.58
2022-12-11T04:48:44.006Z,49.66
2022-12-11T04:51:10.947Z,49.73
2022-12-11T04:53:37.761Z,49.16
2022-12-11T04:56:09.880Z,49.63
2022-12-11T04:58:37.033Z,49.45
2022-12-11T05:01:17.800Z,49.50
2022-12-11T05:03:45.412Z,49.14
2022-12-11T05:06:12.321Z,49.37
2022-12-11T05:08:40.932Z,50.01
2022-12-11T05:11:10.209Z,49.96
2022-12-11T05:13:36.935Z,49.70
2022-12-11T05:16:05.735Z,49.72
2022-12-11T05:18:32.309Z,50.02
2022-12-11T05:21:00.762Z,49.70
2022-12-11T05:23:27.101Z,50.12
2022-12-11T05:25:58.408Z,49.53
2022-12-11T05:28:26.322Z,49.16
2022-12-11T05:31:00.652Z,49.35
2022-12-11T05:33:27.334Z,49.70
2022-12-11T05:35:53.957Z,49.71
2022-12-11T05:38:20.845Z,49.86
2022-12-11T05:41:04.907Z,50.00
2022-12-11T05:43:33.499Z,49.63
2022-12-11T05:46:16.942Z,50.26
2022-12-11T05:48:46.077Z,49.77
2022-12-11T05:51:14.401Z,50.17
2022-12-11T05:53:42.256Z,49.79
2022-12-11T05:56:13.953Z,50.25
2022-12-11T05:58:41.730Z,50.19
2022-12-11T06:01:10.498Z,50.29
2022-12-11T06:03:37.625Z,50.44
2022-12-11T06:06:05.834Z,49.68
2022-12-11T06:08:33.493Z,50.25
2022-12-11T06:11:00.337Z,49.55
2022-12-11T06:13:27.221Z,50.23
2022-12-11T06:15:53.913Z,49.64
2022-12-11T06:18:20.429Z,49.52
2022-12-11T06:20:49.198Z,49.68
2022-12-11T06:23:15.709Z,49.53
2022-12-11T06:25:42.158Z,50.00
2022-12-11T06:28:08.862Z,50.10
2022-12-11T06:30:38.874Z,49.97
2022-12-11T06:33:05.868Z,49.50
2022-12-11T06:35:34.241Z,49.99
2022-12-11T06:38:05.016Z,50.13
2022-12-11T06:40:31.311Z,49.99
2022-12-11T06:42:57.613Z,49.94
2022-12-11T06:45:24.011Z,50.22
2022-12-11T06:47:50.587Z,50.23
2022-12-11T06:50:16.965Z,50.32
2022-12-11T06:52:43.461Z,50.24
2022-12-11T06:55:10.138Z,50.03
2022-12-11T06:57:36.980Z,50.15
2022-12-11T07:00:04.210Z,49.97
2022-12-11T07:02:30.595Z,49.85
2022-12-11T07:04:56.937Z,50.34
2022-12-11T07:07:23.393Z,50.42
2022-12-11T07:09:49.924Z,50.33
2022-12-11T07:12:17.586Z,50.33
2022-12-11T07:14:43.958Z,49.97
2022-12-11T07:17:10.336Z,50.43
2022-12-11T07:19:36.906Z,49.94
2022-12-11T07:22:03.233Z,49.98
2022-12-11T07:24:29.548Z,50.24
2022-12-11T07:26:55.994Z,49.65
2022-12-11T07:29:22.349Z,49.54
2022-12-11T07:31:48.738Z,50.16
2022-12-11T07:34:15.142Z,50.27
2022-12-11T07:36:41.714Z,49.63
2022-12-11T07:39:09.235Z,49.88
2022-12-11T07:41:35.609Z,49.62
2022-12-11T07:44:02.780Z,49.90
2022-12-11T07:46:31.353Z,50.17
2022-12-11T07:48:58.149Z,50.05
2022-12-11T07:51:28.143Z,49.87
2022-12-11T07:53:57.377Z,50.26
2022-12-11T07:56:24.198Z,49.99
2022-12-11T07:58:50.736Z,50.02
2022-12-11T08:01:20.286Z,50.27
2022-12-11T08:03:47.295Z,50.26
2022-12-11T08:06:14.475Z,49.80
2022-12-11T08:08:42.129Z,49.76
2022-12-11T08:11:11.894Z,50.44
2022-12-11T08:13:38.692Z,50.17
2022-12-11T08:16:06.474Z,50.09
2022-12-11T08:18:34.600Z,49.78
2022-12-11T08:21:13.466Z,50.35
2022-12-11T08:23:40.213Z,49.71
2022-12-11T08:26:09.187Z,50.13
2022-12-11T08:28:35.801Z,49.96
2022-12-11T08:31:05.762Z,49.41
2022-12-11T08:33:32.403Z,49.74
2022-12-11T08:35:58.700Z,49.41
2022-12-11T08:38:25.744Z,50.49
2022-12-11T08:40:52.174Z,50.11
2022-12-11T08:43:18.505Z,50.19
2022-12-11T08:45:46.520Z,49.54
2022-12-11T08:48:12.933Z,49.72
2022-12-11T08:50:39.478Z,50.10
2022-12-11T08:53:05.916Z,49.72
2022-12-11T08:55:33.011Z,49.79
2022-12-11T08:57:59.703Z,49.51
2022-12-11T09:00:26.258Z,49.46
2022-12-11T09:02:52.756Z,49.69
2022-12-11T09:05:19.332Z,49.45
2022-12-11T09:07:45.750Z,49.53
2022-12-11T09:10:12.302Z,50.08
2022-12-11T09:12:38.696Z,50.18
2022-12-11T09:15:05.611Z,50.04
2022-12-11T09:17:33.450Z,50.04
2022-12-11T09:19:59.887Z,49.64
2022-12-11T09:22:26.414Z,49.57
2022-12-11T09:24:53.110Z,50.15
2022-12-11T09:27:21.321Z,49.70
2022-12-11T09:29:47.726Z,49.71
2022-12-11T09:32:14.295Z,49.54
2022-12-11T09:34:40.694Z,50.14
2022-12-11T09:37:07.035Z,49.82
2022-12-11T09:39:33.388Z,49.81
2022-12-11T09:42:21.646Z,49.84
2022-12-11T09:44:52.963Z,50.28
2022-12-11T09:47:25.525Z,49.56
2022-12-11T09:50:02.912Z,49.40
2022-12-11T09:52:37.115Z,49.54
2022-12-11T09:55:14.959Z,48.76
2022-12-11T09:57:55.624Z,48.73
2022-12-11T10:00:31.956Z,49.22
2022-12-11T10:03:34.247Z,49.00
2022-12-11T10:06:28.219Z,49.32
2022-12-11T10:09:22.007Z,49.32
2022-12-11T10:11:56.514Z,49.13
2022-12-11T10:14:33.148Z,49.02
2022-12-11T10:17:11.121Z,49.31
2022-12-11T10:19:40.051Z,49.17
2022-12-11T10:22:17.341Z,48.64
2022-12-11T10:27:40.035Z,48.86
2022-12-11T10:30:16.022Z,48.36
2022-12-11T10:33:04.103Z,48.48
2022-12-11T10:35:39.709Z,48.11
2022-12-11T10:38:16.714Z,47.90
2022-12-11T10:40:45.955Z,48.29
2022-12-11T10:43:12.750Z,48.34
2022-12-11T10:45:39.247Z,48.59
2022-12-11T10:48:09.854Z,47.69
2022-12-11T10:50:37.719Z,48.45
2022-12-11T10:53:05.598Z,47.66
2022-12-11T10:55:44.790Z,47.37
2022-12-11T10:58:18.862Z,48.15
2022-12-11T11:00:46.419Z,47.99
2022-12-11T11:03:22.719Z,47.34
2022-12-11T11:05:50.632Z,48.29
2022-12-11T11:08:22.617Z,47.92
2022-12-11T11:10:58.494Z,47.64
2022-12-11T11:13:28.295Z,47.87
2022-12-11T11:16:12.682Z,47.03
2022-12-11T11:18:41.893Z,47.90
2022-12-11T11:21:22.605Z,47.42
2022-12-11T11:23:53.202Z,47.74
2022-12-11T11:26:23.051Z,48.03
2022-12-11T11:28:54.525Z,47.41
2022-12-11T11:31:30.480Z,47.98
2022-12-11T11:34:04.083Z,47.11
2022-12-11T11:36:33.761Z,47.37
2022-12-11T11:39:12.734Z,47.91
2022-12-11T11:41:52.884Z,47.20
2022-12-11T11:44:31.862Z,48.05
2022-12-11T11:47:14.813Z,47.34
2022-12-11T11:49:55.647Z,47.30
2022-12-11T11:52:30.748Z,46.95
2022-12-11T11:55:10.043Z,47.74
2022-12-11T11:57:56.234Z,46.78
2022-12-11T12:00:31.950Z,47.85
2022-12-11T12:03:10.724Z,46.83
2022-12-11T12:05:45.644Z,47.21
2022-12-11T12:08:46.303Z,46.61
2022-12-11T12:11:23.873Z,46.97
2022-12-11T12:14:51.263Z,46.89
2022-12-11T12:17:26.832Z,47.52
2022-12-11T12:20:13.251Z,47.40
2022-12-11T12:23:00.078Z,47.38
2022-12-11T12:25:40.312Z,47.05
2022-12-11T12:28:21.565Z,47.11
2022-12-11T12:30:58.614Z,47.35
2022-12-11T12:33:52.288Z,47.46
2022-12-11T12:36:32.039Z,47.39
2022-12-11T12:39:26.127Z,46.92
2022-12-11T12:42:07.267Z,47.18
2022-12-11T12:45:15.137Z,46.49
2022-12-11T12:47:53.076Z,46.67
2022-12-11T12:50:26.270Z,47.15
2022-12-11T12:52:55.559Z,47.35
2022-12-11T12:55:32.074Z,47.30
2022-12-11T12:58:02.274Z,47.41
2022-12-11T13:00:39.412Z,47.62
2022-12-11T13:03:12.832Z,46.67
2022-12-11T13:05:43.167Z,47.00
2022-12-11T13:08:11.948Z,47.12
2022-12-11T13:10:41.775Z,47.44
2022-12-11T13:13:38.484Z,46.95
2022-12-11T13:16:16.988Z,46.79
2022-12-11T13:18:45.534Z,47.01
2022-12-11T13:21:27.267Z,47.04
2022-12-11T13:23:54.319Z,46.76
2022-12-11T13:26:33.200Z,46.96
2022-12-11T13:28:59.883Z,46.82
2022-12-11T13:31:33.382Z,46.48
2022-12-11T13:34:08.582Z,46.87
2022-12-11T13:36:37.976Z,46.65
2022-12-11T13:39:25.918Z,46.88
2022-12-11T13:41:55.873Z,46.80
2022-12-11T13:44:32.726Z,46.93
2022-12-11T13:47:03.328Z,47.17
2022-12-11T13:49:35.499Z,46.65
2022-12-11T13:52:03.156Z,46.89
2022-12-11T13:54:34.070Z,46.52
2022-12-11T13:57:13.850Z,47.25
2022-12-11T13:59:43.303Z,46.55
2022-12-11T14:02:49.202Z,46.61
2022-12-11T14:05:16.247Z,46.53
2022-12-11T14:07:51.616Z,46.79
2022-12-11T14:10:21.228Z,46.43
2022-12-11T14:13:00.828Z,46.43
2022-12-11T14:15:29.343Z,46.37
2022-12-11T14:17:56.666Z,46.57
2022-12-11T14:20:33.091Z,47.03
2022-12-11T14:23:18.329Z,46.18
2022-12-11T14:26:00.124Z,46.58
2022-12-11T14:28:29.312Z,46.60
2022-12-11T14:30:59.146Z,46.69
2022-12-11T14:33:32.558Z,46.45
2022-12-11T14:36:00.576Z,46.43
2022-12-11T14:38:44.052Z,46.22
2022-12-11T14:41:18.317Z,46.67
2022-12-11T14:43:52.925Z,46.41
2022-12-11T14:46:28.869Z,46.16
2022-12-11T14:49:04.869Z,46.64
2022-12-11T14:51:36.037Z,46.22
2022-12-11T14:54:03.945Z,46.29
2022-12-11T14:56:31.063Z,46.42
2022-12-11T14:59:19.324Z,46.30
2022-12-11T15:01:45.635Z,46.86
2022-12-11T15:04:15.547Z,46.25
2022-12-11T15:06:47.917Z,46.74
2022-12-11T15:09:37.888Z,46.12
2022-12-11T15:12:11.744Z,46.85
2022-12-11T15:14:48.496Z,46.43
2022-12-11T15:17:15.319Z,47.21
2022-12-11T15:19:51.079Z,47.18
2022-12-11T15:22:19.419Z,47.33
2022-12-11T15:24:49.068Z,46.87
2022-12-11T15:27:33.324Z,46.96
2022-12-11T15:29:59.742Z,47.18
2022-12-11T15:32:26.088Z,46.52
2022-12-11T15:34:53.778Z,46.84
2022-12-11T15:37:30.053Z,46.44
2022-12-11T15:39:58.816Z,46.24
2022-12-11T15:42:35.163Z,46.12
2022-12-11T15:45:02.860Z,46.35
2022-12-11T15:47:30.519Z,46.25
2022-12-11T15:49:59.916Z,46.27
2022-12-11T15:52:26.313Z,46.01
2022-12-11T15:54:52.881Z,46.90
2022-12-11T15:57:24.493Z,46.35
2022-12-11T15:59:52.743Z,46.47
2022-12-11T16:02:19.450Z,46.40
2022-12-11T16:04:45.895Z,46.56
2022-12-11T16:07:23.782Z,46.12
2022-12-11T16:09:50.508Z,46.52
2022-12-11T16:12:17.233Z,45.80
2022-12-11T16:14:45.225Z,46.12
2022-12-11T16:17:14.809Z,46.20
2022-12-11T16:19:45.571Z,46.52
2022-12-11T16:22:13.809Z,46.77
2022-12-11T16:24:45.307Z,46.77
2022-12-11T16:27:11.618Z,46.17
2022-12-11T16:29:40.782Z,46.82
2022-12-11T16:32:10.195Z,46.09
2022-12-11T16:34:37.872Z,47.01
2022-12-11T16:37:06.361Z,46.48
2022-12-11T16:39:32.719Z,46.61
2022-12-11T16:41:59.127Z,46.69
2022-12-11T16:44:27.218Z,46.50
2022-12-11T16:46:54.013Z,46.15
2022-12-11T16:49:21.705Z,46.55
2022-12-11T16:51:49.396Z,46.38
2022-12-11T16:54:16.497Z,46.01
2022-12-11T16:56:43.659Z,46.51
2022-12-11T16:59:10.997Z,46.63
2022-12-11T17:01:37.494Z,45.95
2022-12-11T17:04:03.889Z,46.61
2022-12-11T17:06:30.565Z,46.29
2022-12-11T17:08:58.669Z,46.51
2022-12-11T17:11:26.369Z,46.58
2022-12-11T17:13:54.920Z,46.63
2022-12-11T17:16:22.238Z,46.53
2022-12-11T17:18:48.779Z,46.29
2022-12-11T17:21:18.740Z,45.83
2022-12-11T17:23:45.506Z,45.71
2022-12-11T17:26:14.658Z,45.85
2022-12-11T17:28:42.150Z,46.17
2022-12-11T17:31:16.465Z,46.22
2022-12-11T17:33:44.694Z,46.49
2022-12-11T17:36:14.422Z,46.52
2022-12-11T17:38:41.464Z,45.90
2022-12-11T17:41:15.502Z,46.25
2022-12-11T17:43:47.286Z,46.10
2022-12-11T17:46:14.233Z,46.06
2022-12-11T17:48:40.847Z,46.32
2022-12-11T17:51:09.969Z,45.85
2022-12-11T17:53:39.009Z,45.78
2022-12-11T17:56:07.335Z,46.68
2022-12-11T17:58:34.824Z,45.96
2022-12-11T18:01:06.967Z,46.06
2022-12-11T18:03:33.622Z,45.93
2022-12-11T18:06:04.651Z,45.68
2022-12-11T18:08:31.706Z,46.94
2022-12-11T18:11:05.529Z,46.32
2022-12-11T18:13:32.245Z,46.60
2022-12-11T18:16:00.835Z,46.07
2022-12-11T18:18:27.435Z,46.65
2022-12-11T18:20:53.819Z,46.38
2022-12-11T18:23:20.305Z,46.45
2022-12-11T18:25:47.895Z,46.10
2022-12-11T18:28:14.418Z,46.89
2022-12-11T18:30:40.809Z,46.35
2022-12-11T18:33:08.263Z,46.32
2022-12-11T18:35:34.626Z,47.05
2022-12-11T18:38:01.212Z,45.96
2022-12-11T18:40:28.967Z,46.19
2022-12-11T18:42:55.491Z,46.71
2022-12-11T18:45:22.038Z,46.70
2022-12-11T18:47:52.174Z,46.55
2022-12-11T18:50:19.010Z,46.01
2022-12-11T18:52:45.821Z,46.33
2022-12-11T18:55:12.592Z,46.62
2022-12-11T18:57:39.332Z,46.64
2022-12-11T19:00:07.821Z,46.19
2022-12-11T19:02:34.850Z,46.46
2022-12-11T19:05:01.300Z,46.52
2022-12-11T19:07:27.656Z,46.72
2022-12-11T19:09:54.321Z,46.15
2022-12-11T19:12:22.787Z,46.63
2022-12-11T19:14:49.065Z,46.66
2022-12-11T19:17:16.032Z,46.21
2022-12-11T19:19:44.259Z,46.42
2022-12-11T19:22:10.790Z,46.27
2022-12-11T19:24:37.859Z,46.44
2022-12-11T19:27:08.595Z,46.34
2022-12-11T19:29:38.181Z,46.59
2022-12-11T19:32:06.562Z,46.75
2022-12-11T19:34:32.878Z,46.75
2022-12-11T19:36:59.293Z,46.52
2022-12-11T19:39:25.792Z,46.86
2022-12-11T19:41:52.164Z,46.72
2022-12-11T19:44:18.516Z,47.15
2022-12-11T19:46:45.038Z,46.82
2022-12-11T19:49:12.409Z,47.26
2022-12-11T19:51:40.985Z,47.32
2022-12-11T19:54:11.374Z,46.84
2022-12-11T19:56:38.505Z,46.90
2022-12-11T19:59:08.377Z,47.06
2022-12-11T20:01:37.190Z,47.25
2022-12-11T20:04:08.576Z,47.02
2022-12-11T20:06:39.111Z,46.69
2022-12-11T20:09:07.411Z,47.17
2022-12-11T20:11:33.823Z,47.10
2022-12-11T20:14:01.797Z,46.76
2022-12-11T20:16:53.831Z,46.62
2022-12-11T20:19:15.114Z,46.63
2022-12-11T20:21:42.765Z,47.23
2022-12-11T20:24:10.336Z,47.12
2022-12-11T20:26:38.071Z,47.23
2022-12-11T20:29:07.492Z,47.18
2022-12-11T20:31:35.823Z,47.20
2022-12-11T20:34:02.635Z,47.24
2022-12-11T20:36:29.006Z,46.71
2022-12-11T20:38:55.971Z,46.96
2022-12-11T20:41:24.436Z,47.00
2022-12-11T20:43:52.949Z,46.99
2022-12-11T20:46:21.047Z,46.92
2022-12-11T20:48:48.285Z,47.28
2022-12-11T20:51:20.945Z,46.91
2022-12-11T20:53:58.665Z,47.60
2022-12-11T20:56:28.852Z,47.36
2022-12-11T20:58:55.607Z,47.04
2022-12-11T21:01:24.648Z,47.26
2022-12-11T21:03:53.249Z,47.25
2022-12-11T21:06:32.792Z,47.05
2022-12-11T21:09:14.930Z,47.36
2022-12-11T21:11:41.375Z,47.31
2022-12-11T21:14:07.770Z,47.05
2022-12-11T21:16:36.711Z,47.19
2022-12-11T21:19:04.114Z,47.18
2022-12-11T21:21:39.701Z,47.60
2022-12-11T21:24:09.303Z,47.60
2022-12-11T21:26:35.691Z,47.64
2022-12-11T21:29:02.009Z,48.05
2022-12-11T21:31:28.892Z,47.34
2022-12-11T21:33:55.357Z,47.81
2022-12-11T21:36:21.888Z,47.56
2022-12-11T21:38:48.526Z,47.50
2022-12-11T21:41:18.229Z,48.01
2022-12-11T21:44:49.817Z,47.33
2022-12-11T21:46:33.546Z,47.59
2022-12-11T21:49:01.241Z,47.80
2022-12-11T21:51:38.565Z,47.56
2022-12-11T21:54:10.171Z,47.50
2022-12-11T21:56:36.591Z,47.47
2022-12-11T21:59:03.438Z,47.67
2022-12-11T22:01:33.654Z,47.46
2022-12-11T22:04:01.547Z,47.53
2022-12-11T22:06:28.220Z,48.08
2022-12-11T22:08:54.682Z,47.71
2022-12-11T22:11:28.518Z,47.86
2022-12-11T22:13:55.576Z,48.20
2022-12-11T22:16:22.133Z,47.57
2022-12-11T22:18:48.874Z,48.34
2022-12-11T22:21:15.712Z,47.87
2022-12-11T22:23:43.305Z,48.08
2022-12-11T22:26:15.385Z,47.76
2022-12-11T22:28:42.157Z,47.92
2022-12-11T22:31:13.913Z,47.91
2022-12-11T22:33:42.879Z,47.74
2022-12-11T22:36:13.314Z,47.93
2022-12-11T22:38:42.327Z,47.88
2022-12-11T22:41:10.923Z,47.44
2022-12-11T22:43:37.272Z,47.67
2022-12-11T22:46:03.895Z,48.19
2022-12-11T22:48:30.301Z,47.90
2022-12-11T22:50:56.902Z,47.65
2022-12-11T22:53:23.317Z,47.68
2022-12-11T22:55:49.787Z,47.75
2022-12-11T22:58:21.502Z,47.64
2022-12-11T23:00:49.961Z,47.32
2022-12-11T23:03:16.541Z,47.63
2022-12-11T23:05:43.344Z,47.57
2022-12-11T23:08:09.962Z,47.57
2022-12-11T23:10:39.759Z,47.50
2022-12-11T23:13:06.324Z,47.51
2022-12-11T23:15:32.673Z,47.97
2022-12-11T23:17:58.962Z,47.50
2022-12-11T23:20:25.333Z,48.19
2022-12-11T23:22:51.755Z,48.17
2022-12-11T23:25:18.626Z,48.11
2022-12-11T23:27:45.340Z,47.89
2022-12-11T23:30:14.093Z,48.13
2022-12-11T23:32:40.442Z,47.93
2022-12-11T23:35:07.170Z,48.35
2022-12-11T23:37:33.657Z,47.94
2022-12-11T23:40:00.049Z,47.64
2022-12-11T23:42:26.584Z,48.11
2022-12-11T23:44:54.812Z,48.25
2022-12-11T23:47:21.125Z,47.93
2022-12-11T23:49:47.495Z,47.98
2022-12-11T23:52:13.806Z,47.83
2022-12-11T23:54:41.269Z,47.91
2022-12-11T23:57:11.691Z,48.46
2022-12-11T23:59:38.222Z,48.28
